sensor_id;sensor_type;location;lat;lon;timestamp;temperature;humidity
21805;DHT22;11064;47.102;15.452;2023-03-01T05:02:57;0.70;99.90
21805;DHT22;11064;47.102;15.452;2023-03-01T05:05:33;0.80;99.90
21805;DHT22;11064;47.102;15.452;2023-03-01T05:08:03;0.80;99.90
21805;DHT22;11064;47.102;15.452;2023-03-01T05:10:32;0.80;99.90
21805;DHT22;11064;47.102;15.452;2023-03-01T05:13:02;0.90;99.90
21805;DHT22;11064;47.102;15.452;2023-03-01T05:15:31;0.90;99.90
21805;DHT22;11064;47.102;15.452;2023-03-01T05:17:58;0.90;99.90
21805;DHT22;11064;47.102;15.452;2023-03-01T05:20:29;1.00;99.90
21805;DHT22;11064;47.102;15.452;2023-03-01T05:22:57;1.10;99.90
21805;DHT22;11064;47.102;15.452;2023-03-01T05:25:31;1.00;99.90
21805;DHT22;11064;47.102;15.452;2023-03-01T05:28:02;1.00;99.90
21805;DHT22;11064;47.102;15.452;2023-03-01T05:30:34;1.10;99.90
21805;DHT22;11064;47.102;15.452;2023-03-01T05:33:01;1.00;99.90
21805;DHT22;11064;47.102;15.452;2023-03-01T05:35:27;1.00;99.90
21805;DHT22;11064;47.102;15.452;2023-03-01T05:37:53;1.00;99.90
21805;DHT22;11064;47.102;15.452;2023-03-01T05:40:21;1.10;99.90
21805;DHT22;11064;47.102;15.452;2023-03-01T05:42:55;1.10;99.90
21805;DHT22;11064;47.102;15.452;2023-03-01T05:45:22;1.00;99.90
21805;DHT22;11064;47.102;15.452;2023-03-01T05:47:49;1.00;99.90
21805;DHT22;11064;47.102;15.452;2023-03-01T05:50:16;1.00;99.90
21805;DHT22;11064;47.102;15.452;2023-03-01T05:52:48;1.00;99.90
21805;DHT22;11064;47.102;15.452;2023-03-01T05:55:19;1.00;99.90
21805;DHT22;11064;47.102;15.452;2023-03-01T05:57:46;1.00;99.90
21805;DHT22;11064;47.102;15.452;2023-03-01T06:00:13;1.00;99.90
21805;DHT22;11064;47.102;15.452;2023-03-01T06:02:40;1.00;99.90
21805;DHT22;11064;47.102;15.452;2023-03-01T06:05:08;0.90;99.90
21805;DHT22;11064;47.102;15.452;2023-03-01T06:07:35;1.00;99.90
21805;DHT22;11064;47.102;15.452;2023-03-01T06:10:02;1.00;99.90
21805;DHT22;11064;47.102;15.452;2023-03-01T06:12:33;1.00;99.90
21805;DHT22;11064;47.102;15.452;2023-03-01T06:14:59;1.10;99.90
21805;DHT22;11064;47.102;15.452;2023-03-01T06:17:26;1.10;99.90
21805;DHT22;11064;47.102;15.452;2023-03-01T06:19:54;1.10;99.90
21805;DHT22;11064;47.102;15.452;2023-03-01T06:22:20;1.00;99.90
21805;DHT22;11064;47.102;15.452;2023-03-01T06:24:45;1.00;99.90
21805;DHT22;11064;47.102;15.452;2023-03-01T06:27:11;1.10;99.90
21805;DHT22;11064;47.102;15.452;2023-03-01T06:29:37;1.10;99.90
21805;DHT22;11064;47.102;15.452;2023-03-01T06:32:03;1.20;99.90
21805;DHT22;11064;47.102;15.452;2023-03-01T06:34:30;1.20;99.90
21805;DHT22;11064;47.102;15.452;2023-03-01T06:36:56;1.20;99.90
21805;DHT22;11064;47.102;15.452;2023-03-01T06:39:22;1.20;99.90
21805;DHT22;11064;47.102;15.452;2023-03-01T06:41:47;1.30;99.90
21805;DHT22;11064;47.102;15.452;2023-03-01T06:44:13;1.40;99.90
21805;DHT22;11064;47.102;15.452;2023-03-01T06:46:39;1.50;99.90
21805;DHT22;11064;47.102;15.452;2023-03-01T06:49:06;1.50;99.90
21805;DHT22;11064;47.102;15.452;2023-03-01T06:51:36;1.60;99.90
21805;DHT22;11064;47.102;15.452;2023-03-01T06:54:04;1.70;99.90
21805;DHT22;11064;47.102;15.452;2023-03-01T06:56:31;1.80;99.90
21805;DHT22;11064;47.102;15.452;2023-03-01T06:58:57;1.80;99.90
21805;DHT22;11064;47.102;15.452;2023-03-01T07:01:23;1.80;99.90
21805;DHT22;11064;47.102;15.452;2023-03-01T07:03:49;1.90;99.90
21805;DHT22;11064;47.102;15.452;2023-03-01T07:06:15;1.90;99.90
21805;DHT22;11064;47.102;15.452;2023-03-01T07:08:41;2.00;99.90
21805;DHT22;11064;47.102;15.452;2023-03-01T07:11:07;2.10;99.90
21805;DHT22;11064;47.102;15.452;2023-03-01T07:13:33;2.10;99.90
21805;DHT22;11064;47.102;15.452;2023-03-01T07:15:59;2.10;99.90
21805;DHT22;11064;47.102;15.452;2023-03-01T07:18:25;2.20;99.90
21805;DHT22;11064;47.102;15.452;2023-03-01T07:20:51;2.30;99.90
21805;DHT22;11064;47.102;15.452;2023-03-01T07:23:18;2.40;99.90
21805;DHT22;11064;47.102;15.452;2023-03-01T07:25:44;2.40;99.90
21805;DHT22;11064;47.102;15.452;2023-03-01T07:28:09;2.50;99.90
21805;DHT22;11064;47.102;15.452;2023-03-01T07:30:35;2.60;99.90
21805;DHT22;11064;47.102;15.452;2023-03-01T07:33:01;2.60;99.90
21805;DHT22;11064;47.102;15.452;2023-03-01T07:35:28;2.60;99.90
21805;DHT22;11064;47.102;15.452;2023-03-01T07:37:53;2.60;99.90
21805;DHT22;11064;47.102;15.452;2023-03-01T07:40:19;2.60;99.90
21805;DHT22;11064;47.102;15.452;2023-03-01T07:42:45;2.50;99.90
21805;DHT22;11064;47.102;15.452;2023-03-01T07:45:12;2.50;99.90
21805;DHT22;11064;47.102;15.452;2023-03-01T07:47:39;2.30;99.90
21805;DHT22;11064;47.102;15.452;2023-03-01T07:50:05;2.30;99.90
21805;DHT22;11064;47.102;15.452;2023-03-01T07:52:31;2.40;99.90
21805;DHT22;11064;47.102;15.452;2023-03-01T07:54:57;2.40;99.90
21805;DHT22;11064;47.102;15.452;2023-03-01T07:57:23;2.50;99.90
21805;DHT22;11064;47.102;15.452;2023-03-01T07:59:49;2.60;99.90
21805;DHT22;11064;47.102;15.452;2023-03-01T08:02:15;2.50;99.90
21805;DHT22;11064;47.102;15.452;2023-03-01T08:04:42;2.60;99.90
21805;DHT22;11064;47.102;15.452;2023-03-01T08:07:08;2.80;99.90
21805;DHT22;11064;47.102;15.452;2023-03-01T08:09:37;2.80;99.90
21805;DHT22;11064;47.102;15.452;2023-03-01T08:12:04;2.90;99.90
21805;DHT22;11064;47.102;15.452;2023-03-01T08:14:31;3.00;99.90
21805;DHT22;11064;47.102;15.452;2023-03-01T08:16:57;3.00;99.90
21805;DHT22;11064;47.102;15.452;2023-03-01T08:19:23;3.00;99.90
21805;DHT22;11064;47.102;15.452;2023-03-01T08:21:49;3.20;99.90
21805;DHT22;11064;47.102;15.452;2023-03-01T08:24:15;3.30;99.90
21805;DHT22;11064;47.102;15.452;2023-03-01T08:26:41;3.50;99.90
21805;DHT22;11064;47.102;15.452;2023-03-01T08:29:06;3.70;99.90
21805;DHT22;11064;47.102;15.452;2023-03-01T08:31:38;3.70;99.90
21805;DHT22;11064;47.102;15.452;2023-03-01T08:34:09;3.70;99.90
21805;DHT22;11064;47.102;15.452;2023-03-01T08:36:37;4.00;99.90
21805;DHT22;11064;47.102;15.452;2023-03-01T08:39:04;4.10;99.90
21805;DHT22;11064;47.102;15.452;2023-03-01T08:41:31;4.20;99.90
21805;DHT22;11064;47.102;15.452;2023-03-01T08:43:57;4.20;99.90
21805;DHT22;11064;47.102;15.452;2023-03-01T08:46:31;4.20;98.90
21805;DHT22;11064;47.102;15.452;2023-03-01T08:48:57;4.20;98.80
21805;DHT22;11064;47.102;15.452;2023-03-01T08:51:24;4.40;99.40
21805;DHT22;11064;47.102;15.452;2023-03-01T08:53:50;4.30;98.60
21805;DHT22;11064;47.102;15.452;2023-03-01T08:56:17;4.10;98.40
21805;DHT22;11064;47.102;15.452;2023-03-01T08:58:48;4.20;98.80
21805;DHT22;11064;47.102;15.452;2023-03-01T09:01:18;3.80;98.70
21805;DHT22;11064;47.102;15.452;2023-03-01T09:03:45;3.90;99.10
21805;DHT22;11064;47.102;15.452;2023-03-01T09:06:12;3.70;99.30
21805;DHT22;11064;47.102;15.452;2023-03-01T09:08:40;4.00;99.30
21805;DHT22;11064;47.102;15.452;2023-03-01T09:11:08;4.00;98.70
21805;DHT22;11064;47.102;15.452;2023-03-01T09:13:34;4.10;98.60
21805;DHT22;11064;47.102;15.452;2023-03-01T09:16:02;4.10;98.10
21805;DHT22;11064;47.102;15.452;2023-03-01T09:18:28;4.30;98.50
21805;DHT22;11064;47.102;15.452;2023-03-01T09:21:14;4.20;98.70
21805;DHT22;11064;47.102;15.452;2023-03-01T09:23:43;3.90;98.40
21805;DHT22;11064;47.102;15.452;2023-03-01T09:26:11;3.60;99.80
21805;DHT22;11064;47.102;15.452;2023-03-01T09:28:40;3.60;99.40
21805;DHT22;11064;47.102;15.452;2023-03-01T09:31:10;3.60;99.40
21805;DHT22;11064;47.102;15.452;2023-03-01T09:33:39;3.80;99.40
21805;DHT22;11064;47.102;15.452;2023-03-01T09:36:08;3.90;99.70
21805;DHT22;11064;47.102;15.452;2023-03-01T09:38:36;3.70;99.90
21805;DHT22;11064;47.102;15.452;2023-03-01T09:41:08;3.80;99.90
21805;DHT22;11064;47.102;15.452;2023-03-01T09:46:11;3.80;99.90
21805;DHT22;11064;47.102;15.452;2023-03-01T09:48:48;3.90;99.90
21805;DHT22;11064;47.102;15.452;2023-03-01T09:51:25;4.00;99.90
21805;DHT22;11064;47.102;15.452;2023-03-01T09:53:52;3.80;99.90
21805;DHT22;11064;47.102;15.452;2023-03-01T10:01:59;4.70;98.70
21805;DHT22;11064;47.102;15.452;2023-03-01T10:04:58;4.80;98.50
21805;DHT22;11064;47.102;15.452;2023-03-01T10:07:39;4.60;97.70
21805;DHT22;11064;47.102;15.452;2023-03-01T10:10:08;4.30;98.00
21805;DHT22;11064;47.102;15.452;2023-03-01T10:12:40;4.50;98.10
21805;DHT22;11064;47.102;15.452;2023-03-01T10:15:24;4.60;98.10
21805;DHT22;11064;47.102;15.452;2023-03-01T10:18:00;4.60;98.40
21805;DHT22;11064;47.102;15.452;2023-03-01T10:20:46;4.70;97.70
21805;DHT22;11064;47.102;15.452;2023-03-01T10:23:14;4.80;97.60
21805;DHT22;11064;47.102;15.452;2023-03-01T10:28:47;4.90;97.60
21805;DHT22;11064;47.102;15.452;2023-03-01T10:31:24;5.10;97.10
21805;DHT22;11064;47.102;15.452;2023-03-01T10:33:54;5.00;97.50
21805;DHT22;11064;47.102;15.452;2023-03-01T10:36:22;5.30;97.80
21805;DHT22;11064;47.102;15.452;2023-03-01T10:38:57;5.10;97.80
21805;DHT22;11064;47.102;15.452;2023-03-01T10:41:27;5.20;97.40
21805;DHT22;11064;47.102;15.452;2023-03-01T10:43:56;5.20;97.20
21805;DHT22;11064;47.102;15.452;2023-03-01T10:46:34;4.70;98.60
21805;DHT22;11064;47.102;15.452;2023-03-01T10:51:33;4.20;99.90
21805;DHT22;11064;47.102;15.452;2023-03-01T10:53:59;4.20;99.90
21805;DHT22;11064;47.102;15.452;2023-03-01T10:56:25;4.10;99.90
21805;DHT22;11064;47.102;15.452;2023-03-01T10:58:59;4.10;99.90
21805;DHT22;11064;47.102;15.452;2023-03-01T11:01:34;4.30;99.90
21805;DHT22;11064;47.102;15.452;2023-03-01T11:06:37;4.90;99.90
21805;DHT22;11064;47.102;15.452;2023-03-01T11:09:21;5.10;99.90
21805;DHT22;11064;47.102;15.452;2023-03-01T11:11:52;5.00;99.90
21805;DHT22;11064;47.102;15.452;2023-03-01T11:14:22;4.70;99.90
21805;DHT22;11064;47.102;15.452;2023-03-01T11:17:01;4.60;99.90
21805;DHT22;11064;47.102;15.452;2023-03-01T11:19:28;4.60;99.90
21805;DHT22;11064;47.102;15.452;2023-03-01T11:27:25;4.70;99.90
21805;DHT22;11064;47.102;15.452;2023-03-01T11:32:32;4.90;99.90
21805;DHT22;11064;47.102;15.452;2023-03-01T11:35:27;4.80;99.90
21805;DHT22;11064;47.102;15.452;2023-03-01T11:38:09;4.90;99.90
21805;DHT22;11064;47.102;15.452;2023-03-01T11:40:46;4.90;99.90
21805;DHT22;11064;47.102;15.452;2023-03-01T11:43:23;4.90;99.90
21805;DHT22;11064;47.102;15.452;2023-03-01T11:49:13;5.00;99.90
21805;DHT22;11064;47.102;15.452;2023-03-01T11:54:51;5.00;99.90
21805;DHT22;11064;47.102;15.452;2023-03-01T12:03:28;4.50;99.90
21805;DHT22;11064;47.102;15.452;2023-03-01T12:20:21;5.90;99.70
21805;DHT22;11064;47.102;15.452;2023-03-01T12:25:41;6.00;98.20
21805;DHT22;11064;47.102;15.452;2023-03-01T12:34:05;6.30;97.30
21805;DHT22;11064;47.102;15.452;2023-03-01T12:36:39;6.20;97.10
21805;DHT22;11064;47.102;15.452;2023-03-01T12:40:10;6.10;96.70
21805;DHT22;11064;47.102;15.452;2023-03-01T12:42:36;6.10;96.90
21805;DHT22;11064;47.102;15.452;2023-03-01T12:46:13;6.10;97.20
21805;DHT22;11064;47.102;15.452;2023-03-01T12:49:20;5.80;97.10
21805;DHT22;11064;47.102;15.452;2023-03-01T12:51:38;5.70;97.70
21805;DHT22;11064;47.102;15.452;2023-03-01T12:54:14;6.00;96.90
21805;DHT22;11064;47.102;15.452;2023-03-01T12:56:40;6.20;96.10
21805;DHT22;11064;47.102;15.452;2023-03-01T13:02:23;6.40;95.40
21805;DHT22;11064;47.102;15.452;2023-03-01T13:07:48;6.50;95.80
21805;DHT22;11064;47.102;15.452;2023-03-01T13:15:35;7.00;95.50
21805;DHT22;11064;47.102;15.452;2023-03-01T13:20:48;6.40;96.30
21805;DHT22;11064;47.102;15.452;2023-03-01T13:36:37;6.60;97.00
21805;DHT22;11064;47.102;15.452;2023-03-01T13:39:00;6.70;96.40
21805;DHT22;11064;47.102;15.452;2023-03-01T13:49:42;7.10;96.50
21805;DHT22;11064;47.102;15.452;2023-03-01T13:52:35;7.20;95.90
21805;DHT22;11064;47.102;15.452;2023-03-01T13:55:03;7.40;95.60
21805;DHT22;11064;47.102;15.452;2023-03-01T13:57:37;7.30;95.60
21805;DHT22;11064;47.102;15.452;2023-03-01T14:00:05;7.40;95.80
21805;DHT22;11064;47.102;15.452;2023-03-01T14:02:31;7.30;95.60
21805;DHT22;11064;47.102;15.452;2023-03-01T14:04:59;7.30;95.80
21805;DHT22;11064;47.102;15.452;2023-03-01T14:07:27;7.30;95.90
21805;DHT22;11064;47.102;15.452;2023-03-01T14:09:57;7.00;96.20
21805;DHT22;11064;47.102;15.452;2023-03-01T14:15:53;7.10;96.70
21805;DHT22;11064;47.102;15.452;2023-03-01T14:18:36;7.00;97.00
21805;DHT22;11064;47.102;15.452;2023-03-01T14:21:08;6.70;97.00
21805;DHT22;11064;47.102;15.452;2023-03-01T14:23:34;6.80;97.50
21805;DHT22;11064;47.102;15.452;2023-03-01T14:26:02;7.00;97.00
21805;DHT22;11064;47.102;15.452;2023-03-01T14:28:31;7.10;96.80
21805;DHT22;11064;47.102;15.452;2023-03-01T14:31:00;7.20;96.70
21805;DHT22;11064;47.102;15.452;2023-03-01T14:33:29;7.30;96.80
21805;DHT22;11064;47.102;15.452;2023-03-01T14:36:12;7.40;96.70
21805;DHT22;11064;47.102;15.452;2023-03-01T14:38:41;7.60;97.30
21805;DHT22;11064;47.102;15.452;2023-03-01T14:41:19;7.40;97.30
21805;DHT22;11064;47.102;15.452;2023-03-01T14:43:50;7.50;97.80
21805;DHT22;11064;47.102;15.452;2023-03-01T14:46:45;7.50;97.80
21805;DHT22;11064;47.102;15.452;2023-03-01T14:49:24;7.50;98.10
21805;DHT22;11064;47.102;15.452;2023-03-01T14:52:05;7.40;98.30
21805;DHT22;11064;47.102;15.452;2023-03-01T14:54:41;7.20;98.90
21805;DHT22;11064;47.102;15.452;2023-03-01T14:57:16;7.10;99.90
21805;DHT22;11064;47.102;15.452;2023-03-01T14:59:43;6.90;99.60
21805;DHT22;11064;47.102;15.452;2023-03-01T15:02:15;6.60;99.90
21805;DHT22;11064;47.102;15.452;2023-03-01T15:04:45;6.50;99.90
21805;DHT22;11064;47.102;15.452;2023-03-01T15:07:13;6.20;99.90
21805;DHT22;11064;47.102;15.452;2023-03-01T15:09:40;6.10;99.90
21805;DHT22;11064;47.102;15.452;2023-03-01T15:14:51;5.60;99.90
21805;DHT22;11064;47.102;15.452;2023-03-01T15:17:38;5.50;99.90
21805;DHT22;11064;47.102;15.452;2023-03-01T15:20:15;5.20;99.90
21805;DHT22;11064;47.102;15.452;2023-03-01T15:22:44;5.10;99.90
21805;DHT22;11064;47.102;15.452;2023-03-01T15:25:19;5.10;99.90
21805;DHT22;11064;47.102;15.452;2023-03-01T15:27:47;5.20;99.90
21805;DHT22;11064;47.102;15.452;2023-03-01T15:30:19;5.30;99.90
21805;DHT22;11064;47.102;15.452;2023-03-01T15:32:46;5.30;99.90
21805;DHT22;11064;47.102;15.452;2023-03-01T15:35:40;5.30;99.90
21805;DHT22;11064;47.102;15.452;2023-03-01T15:38:27;5.30;99.90
21805;DHT22;11064;47.102;15.452;2023-03-01T15:40:54;5.30;99.90
21805;DHT22;11064;47.102;15.452;2023-03-01T15:43:44;5.30;99.90
21805;DHT22;11064;47.102;15.452;2023-03-01T15:46:20;5.20;99.90
21805;DHT22;11064;47.102;15.452;2023-03-01T15:48:50;5.20;99.90
21805;DHT22;11064;47.102;15.452;2023-03-01T15:51:17;5.10;99.90
21805;DHT22;11064;47.102;15.452;2023-03-01T15:53:49;5.20;99.90
21805;DHT22;11064;47.102;15.452;2023-03-01T15:56:16;5.10;99.90
21805;DHT22;11064;47.102;15.452;2023-03-01T15:58:41;5.10;99.90
21805;DHT22;11064;47.102;15.452;2023-03-01T16:01:15;5.00;99.90
21805;DHT22;11064;47.102;15.452;2023-03-01T16:03:42;5.00;99.90
21805;DHT22;11064;47.102;15.452;2023-03-01T16:06:10;4.90;99.90
21805;DHT22;11064;47.102;15.452;2023-03-01T16:08:39;4.70;99.90
21805;DHT22;11064;47.102;15.452;2023-03-01T16:11:13;4.60;99.90
21805;DHT22;11064;47.102;15.452;2023-03-01T16:13:39;4.60;99.90
21805;DHT22;11064;47.102;15.452;2023-03-01T16:16:05;4.60;99.90
21805;DHT22;11064;47.102;15.452;2023-03-01T16:18:33;4.50;99.90
21805;DHT22;11064;47.102;15.452;2023-03-01T16:20:58;4.50;99.90
21805;DHT22;11064;47.102;15.452;2023-03-01T16:23:25;4.40;99.90
21805;DHT22;11064;47.102;15.452;2023-03-01T16:25:51;4.50;99.90
21805;DHT22;11064;47.102;15.452;2023-03-01T16:28:16;4.50;99.90
21805;DHT22;11064;47.102;15.452;2023-03-01T16:30:46;4.40;99.90
21805;DHT22;11064;47.102;15.452;2023-03-01T16:33:14;4.40;99.90
21805;DHT22;11064;47.102;15.452;2023-03-01T16:35:40;4.40;99.90
21805;DHT22;11064;47.102;15.452;2023-03-01T16:38:06;4.30;99.90
21805;DHT22;11064;47.102;15.452;2023-03-01T16:40:32;4.20;99.90
21805;DHT22;11064;47.102;15.452;2023-03-01T16:42:58;4.20;99.90
21805;DHT22;11064;47.102;15.452;2023-03-01T16:45:32;4.20;99.90
21805;DHT22;11064;47.102;15.452;2023-03-01T16:47:59;4.20;99.90
21805;DHT22;11064;47.102;15.452;2023-03-01T16:50:25;4.10;99.90
21805;DHT22;11064;47.102;15.452;2023-03-01T16:52:50;4.10;99.90
21805;DHT22;11064;47.102;15.452;2023-03-01T16:55:16;4.00;99.90
21805;DHT22;11064;47.102;15.452;2023-03-01T16:57:42;4.00;99.90
21805;DHT22;11064;47.102;15.452;2023-03-01T17:00:10;3.90;99.90
21805;DHT22;11064;47.102;15.452;2023-03-01T17:02:38;3.90;99.90
21805;DHT22;11064;47.102;15.452;2023-03-01T17:05:06;3.80;99.90
21805;DHT22;11064;47.102;15.452;2023-03-01T17:07:33;3.80;99.90
21805;DHT22;11064;47.102;15.452;2023-03-01T17:10:00;3.80;99.90
21805;DHT22;11064;47.102;15.452;2023-03-01T17:12:27;3.70;99.90
21805;DHT22;11064;47.102;15.452;2023-03-01T17:14:53;3.70;99.90
21805;DHT22;11064;47.102;15.452;2023-03-01T17:17:19;3.80;99.90
21805;DHT22;11064;47.102;15.452;2023-03-01T17:19:45;3.70;99.90
21805;DHT22;11064;47.102;15.452;2023-03-01T17:22:11;3.70;99.90
21805;DHT22;11064;47.102;15.452;2023-03-01T17:24:39;3.60;99.90
21805;DHT22;11064;47.102;15.452;2023-03-01T17:27:07;3.60;99.90
21805;DHT22;11064;47.102;15.452;2023-03-01T17:29:34;3.50;99.90
21805;DHT22;11064;47.102;15.452;2023-03-01T17:32:01;3.50;99.90
21805;DHT22;11064;47.102;15.452;2023-03-01T17:34:27;3.50;99.90
21805;DHT22;11064;47.102;15.452;2023-03-01T17:36:53;3.40;99.90
21805;DHT22;11064;47.102;15.452;2023-03-01T17:39:19;3.40;99.90
21805;DHT22;11064;47.102;15.452;2023-03-01T17:41:51;3.40;99.90
21805;DHT22;11064;47.102;15.452;2023-03-01T17:44:17;3.40;99.90
21805;DHT22;11064;47.102;15.452;2023-03-01T17:46:43;3.50;99.90
21805;DHT22;11064;47.102;15.452;2023-03-01T17:49:09;3.50;99.90
21805;DHT22;11064;47.102;15.452;2023-03-01T17:51:35;3.50;99.90
21805;DHT22;11064;47.102;15.452;2023-03-01T17:54:01;3.50;99.90
21805;DHT22;11064;47.102;15.452;2023-03-01T17:56:29;3.40;99.90
21805;DHT22;11064;47.102;15.452;2023-03-01T17:58:57;3.40;99.90
21805;DHT22;11064;47.102;15.452;2023-03-01T18:01:27;3.40;99.90
21805;DHT22;11064;47.102;15.452;2023-03-01T18:03:53;3.30;99.90
21805;DHT22;11064;47.102;15.452;2023-03-01T18:06:25;3.30;99.90
21805;DHT22;11064;47.102;15.452;2023-03-01T18:08:52;3.30;99.90
21805;DHT22;11064;47.102;15.452;2023-03-01T18:11:23;3.30;99.90
21805;DHT22;11064;47.102;15.452;2023-03-01T18:13:52;3.30;99.90
21805;DHT22;11064;47.102;15.452;2023-03-01T18:16:20;3.20;99.90
21805;DHT22;11064;47.102;15.452;2023-03-01T18:18:47;3.30;99.90
21805;DHT22;11064;47.102;15.452;2023-03-01T18:21:14;3.30;99.90
21805;DHT22;11064;47.102;15.452;2023-03-01T18:23:42;3.30;99.90
21805;DHT22;11064;47.102;15.452;2023-03-01T18:26:10;3.30;99.90
21805;DHT22;11064;47.102;15.452;2023-03-01T18:28:37;3.30;99.90
21805;DHT22;11064;47.102;15.452;2023-03-01T18:31:06;3.30;99.90
21805;DHT22;11064;47.102;15.452;2023-03-01T18:33:34;3.30;99.90
21805;DHT22;11064;47.102;15.452;2023-03-01T18:36:03;3.40;99.90
21805;DHT22;11064;47.102;15.452;2023-03-01T18:38:30;3.40;99.90
21805;DHT22;11064;47.102;15.452;2023-03-01T18:40:56;3.40;99.90
21805;DHT22;11064;47.102;15.452;2023-03-01T18:43:23;3.40;99.90
21805;DHT22;11064;47.102;15.452;2023-03-01T18:45:57;3.30;99.90
21805;DHT22;11064;47.102;15.452;2023-03-01T18:48:24;3.40;99.90
21805;DHT22;11064;47.102;15.452;2023-03-01T18:50:50;3.40;99.90
21805;DHT22;11064;47.102;15.452;2023-03-01T18:53:16;3.40;99.90
21805;DHT22;11064;47.102;15.452;2023-03-01T18:55:42;3.50;99.90
21805;DHT22;11064;47.102;15.452;2023-03-01T18:58:09;3.50;99.90
21805;DHT22;11064;47.102;15.452;2023-03-01T19:00:35;3.30;99.90
21805;DHT22;11064;47.102;15.452;2023-03-01T19:03:02;3.10;99.90
21805;DHT22;11064;47.102;15.452;2023-03-01T19:05:29;3.10;99.90
21805;DHT22;11064;47.102;15.452;2023-03-01T19:07:56;3.10;99.90
21805;DHT22;11064;47.102;15.452;2023-03-01T19:10:23;3.20;99.90
21805;DHT22;11064;47.102;15.452;2023-03-01T19:12:50;3.20;99.90
21805;DHT22;11064;47.102;15.452;2023-03-01T19:15:16;3.20;99.90
21805;DHT22;11064;47.102;15.452;2023-03-01T19:17:43;3.30;99.90
21805;DHT22;11064;47.102;15.452;2023-03-01T19:20:11;3.30;99.90
21805;DHT22;11064;47.102;15.452;2023-03-01T19:22:38;3.40;99.90
21805;DHT22;11064;47.102;15.452;2023-03-01T19:25:05;3.40;99.90
21805;DHT22;11064;47.102;15.452;2023-03-01T19:27:31;3.40;99.90
21805;DHT22;11064;47.102;15.452;2023-03-01T19:29:57;3.40;99.90
21805;DHT22;11064;47.102;15.452;2023-03-01T19:32:24;3.50;99.90
21805;DHT22;11064;47.102;15.452;2023-03-01T19:34:50;3.50;99.90
21805;DHT22;11064;47.102;15.452;2023-03-01T19:37:16;3.60;99.90
21805;DHT22;11064;47.102;15.452;2023-03-01T19:39:42;3.50;99.90
21805;DHT22;11064;47.102;15.452;2023-03-01T19:42:09;3.50;99.90
21805;DHT22;11064;47.102;15.452;2023-03-01T19:44:37;3.50;99.90
21805;DHT22;11064;47.102;15.452;2023-03-01T19:47:04;3.30;99.90
21805;DHT22;11064;47.102;15.452;2023-03-01T19:49:30;3.30;99.90
21805;DHT22;11064;47.102;15.452;2023-03-01T19:51:57;3.20;99.90
21805;DHT22;11064;47.102;15.452;2023-03-01T19:54:24;3.20;99.90
21805;DHT22;11064;47.102;15.452;2023-03-01T19:56:51;3.20;99.90
21805;DHT22;11064;47.102;15.452;2023-03-01T19:59:20;3.20;99.90
21805;DHT22;11064;47.102;15.452;2023-03-01T20:01:50;3.30;99.90
21805;DHT22;11064;47.102;15.452;2023-03-01T20:04:16;3.20;99.90
21805;DHT22;11064;47.102;15.452;2023-03-01T20:06:45;3.20;99.90
21805;DHT22;11064;47.102;15.452;2023-03-01T20:09:12;3.10;99.90
21805;DHT22;11064;47.102;15.452;2023-03-01T20:11:38;3.10;99.90
21805;DHT22;11064;47.102;15.452;2023-03-01T20:14:08;3.20;99.90
21805;DHT22;11064;47.102;15.452;2023-03-01T20:16:40;3.20;99.90
21805;DHT22;11064;47.102;15.452;2023-03-01T20:19:06;3.20;99.90
21805;DHT22;11064;47.102;15.452;2023-03-01T20:21:33;3.20;99.90
21805;DHT22;11064;47.102;15.452;2023-03-01T20:23:59;3.40;99.90
21805;DHT22;11064;47.102;15.452;2023-03-01T20:26:25;3.40;99.90
21805;DHT22;11064;47.102;15.452;2023-03-01T20:28:54;3.50;99.90
21805;DHT22;11064;47.102;15.452;2023-03-01T20:31:24;3.40;99.90
21805;DHT22;11064;47.102;15.452;2023-03-01T20:33:55;3.30;99.90
21805;DHT22;11064;47.102;15.452;2023-03-01T20:36:22;3.30;99.90
21805;DHT22;11064;47.102;15.452;2023-03-01T20:38:51;3.40;99.90
21805;DHT22;11064;47.102;15.452;2023-03-01T20:41:18;3.40;99.90
21805;DHT22;11064;47.102;15.452;2023-03-01T20:43:45;3.40;99.90
21805;DHT22;11064;47.102;15.452;2023-03-01T20:46:20;3.50;99.90
21805;DHT22;11064;47.102;15.452;2023-03-01T20:48:48;3.50;99.90
21805;DHT22;11064;47.102;15.452;2023-03-01T20:51:18;3.50;99.90
21805;DHT22;11064;47.102;15.452;2023-03-01T20:53:45;3.60;99.90
21805;DHT22;11064;47.102;15.452;2023-03-01T20:56:15;3.50;99.90
21805;DHT22;11064;47.102;15.452;2023-03-01T20:58:41;3.50;99.90
21805;DHT22;11064;47.102;15.452;2023-03-01T21:01:10;3.50;99.90
21805;DHT22;11064;47.102;15.452;2023-03-01T21:03:39;3.50;99.90
21805;DHT22;11064;47.102;15.452;2023-03-01T21:06:06;3.50;99.90
21805;DHT22;11064;47.102;15.452;2023-03-01T21:08:33;3.50;99.90
21805;DHT22;11064;47.102;15.452;2023-03-01T21:10:59;3.40;99.90
21805;DHT22;11064;47.102;15.452;2023-03-01T21:13:26;3.40;99.90
21805;DHT22;11064;47.102;15.452;2023-03-01T21:18:30;3.40;99.90
21805;DHT22;11064;47.102;15.452;2023-03-01T21:21:02;3.40;99.90
21805;DHT22;11064;47.102;15.452;2023-03-01T21:23:30;3.30;99.90
21805;DHT22;11064;47.102;15.452;2023-03-01T21:26:11;3.30;99.90
21805;DHT22;11064;47.102;15.452;2023-03-01T21:28:37;3.30;99.90
21805;DHT22;11064;47.102;15.452;2023-03-01T21:31:31;3.20;99.90
21805;DHT22;11064;47.102;15.452;2023-03-01T21:34:00;3.10;99.90
21805;DHT22;11064;47.102;15.452;2023-03-01T21:36:29;3.00;99.90
21805;DHT22;11064;47.102;15.452;2023-03-01T21:38:57;2.90;99.90
21805;DHT22;11064;47.102;15.452;2023-03-01T21:41:26;2.90;99.90
21805;DHT22;11064;47.102;15.452;2023-03-01T21:43:54;2.80;99.90
21805;DHT22;11064;47.102;15.452;2023-03-01T21:46:27;2.70;99.90
21805;DHT22;11064;47.102;15.452;2023-03-01T21:48:54;2.60;99.90
21805;DHT22;11064;47.102;15.452;2023-03-01T21:51:22;2.60;99.90
21805;DHT22;11064;47.102;15.452;2023-03-01T21:53:49;2.50;99.90
21805;DHT22;11064;47.102;15.452;2023-03-01T21:56:17;2.60;99.90
21805;DHT22;11064;47.102;15.452;2023-03-01T21:58:43;2.60;99.90
21805;DHT22;11064;47.102;15.452;2023-03-01T22:01:12;2.50;99.90
21805;DHT22;11064;47.102;15.452;2023-03-01T22:03:38;2.50;99.90
21805;DHT22;11064;47.102;15.452;2023-03-01T22:06:17;2.60;99.90
21805;DHT22;11064;47.102;15.452;2023-03-01T22:08:51;2.50;99.90
21805;DHT22;11064;47.102;15.452;2023-03-01T22:11:20;2.40;99.90
21805;DHT22;11064;47.102;15.452;2023-03-01T22:13:48;2.40;99.90
21805;DHT22;11064;47.102;15.452;2023-03-01T22:16:18;2.40;99.90
21805;DHT22;11064;47.102;15.452;2023-03-01T22:18:45;2.50;99.90
21805;DHT22;11064;47.102;15.452;2023-03-01T22:21:11;2.40;99.90
21805;DHT22;11064;47.102;15.452;2023-03-01T22:23:39;2.40;99.90
21805;DHT22;11064;47.102;15.452;2023-03-01T22:26:05;2.40;99.90
21805;DHT22;11064;47.102;15.452;2023-03-01T22:28:32;2.50;99.90
21805;DHT22;11064;47.102;15.452;2023-03-01T22:31:02;2.40;99.90